Terminal Aerodrome Forecast
Issued by NWS Bismarck, ND

Home | Current Version | Previous Version | Text Only | Print | Product List | Glossary On
Versions: 1 2 3 4 5 6 7 8 9 10 11 12 13 14 15 16 17
000
FTUS43 KBIS 141100
TAFISN
TAF
KISN 141131Z 1412/1512 35007KT P6SM FEW050
     FM141500 02007KT P6SM SCT050
     FM141800 03009KT P6SM SKC
     FM150000 VRB05KT P6SM SKC=

USA.gov is the U.S. government's official web portal to all federal, state and local government web resources and services.